Terminal Aerodrome Forecast
Issued by NWS

Home | Current Version | Previous Version | Text Only | Print | Product List | Glossary Off
Versions: 1 2 3 4 5 6 7 8 9 10 11 12 13 14 15

566
FTUS43 KICT 161509 AAA
TAFSLN
TAF AMD
KSLN 161509Z 1615/1712 36009KT 4SM -RA BR OVC003
      TEMPO 1615/1617 2SM -RA BR
     FM161800 35011KT P6SM OVC006
     FM162300 32013KT P6SM OVC008=

USA.gov is the U.S. government's official web portal to all federal, state and local government web resources and services.